Poquetanuck, Connecticut
Current Conditions -  °F | °C
As of 12:52 AM on Wednesday 22 Oct 2014 (Local Time) from KIJD Reporting Station
Overcast Overcast  
Wind Chill: 57°   Ceiling: 1500
Heat Index: 57°   Visibility: 10mi
Dew Point: 51°   Wind: 9mph
Humidity: 81%   Direction: 40°NE
Pressure: 29.95"   Gusts: NA
Location:  41.5523°N, 72.0921°W
Report Text: KIJD 220452Z AUTO 04008KT 10SM BKN015 OVC095 14/11 A2995 RMK AO2 SLP141 T01390106 402000044
Loading
Personal Weather Stations






























Interactive Weather Map
Tropical Storm Tracking
New forecast layout! Learn more

10-Day Weather Forecast

Advertisements
Track Severe Weather on mobile